Yelm, Washington
Current Conditions -  °F | °C
As of 4:58 PM on Thursday 27 Nov 2014 (Local Time) from KGRF Reporting Station
Light Rain Light Rain  
Wind Chill: 54°   Ceiling: 6000
Heat Index: 54°   Visibility: 10mi
Dew Point: 52°   Wind: 14mph
Humidity: 92%   Direction: 160°SSE
Pressure: 29.78"   Gusts: NA
Location:  46.94°N, 122.61°W
Report Text: KGRF 280058Z AUTO 16012KT 10SM -RA FEW035 SCT046 OVC060 12/11 A2978 RMK AO2 RAB0043DZE0043 SLP088 P0001 T01240111 $
Loading
Personal Weather Stations






























Interactive Weather Map New forecast layout! Learn more

10-Day Weather Forecast

Advertisements
Track Severe Weather on mobile